createdAt,value
2019-03-12T00:01:09.104Z,8.35
2019-03-12T00:03:37.028Z,9.88
2019-03-12T00:06:05.042Z,7.25
2019-03-12T00:08:32.733Z,4.22
2019-03-12T00:11:01.563Z,4.25
2019-03-12T00:13:29.267Z,6.70
2019-03-12T00:15:56.931Z,7.87
2019-03-12T00:18:24.569Z,11.18
2019-03-12T00:20:52.522Z,8.03
2019-03-12T00:23:21.624Z,5.25
2019-03-12T00:25:49.260Z,8.88
2019-03-12T00:28:17.058Z,8.38
2019-03-12T00:30:44.688Z,12.20
2019-03-12T00:33:12.492Z,7.40
2019-03-12T00:35:40.283Z,7.20
2019-03-12T00:38:08.040Z,7.22
2019-03-12T00:40:35.762Z,8.68
2019-03-12T00:43:03.402Z,10.13
2019-03-12T00:45:31.106Z,6.55
2019-03-12T00:47:58.928Z,4.53
2019-03-12T00:50:26.798Z,11.05
2019-03-12T00:52:55.408Z,8.15
2019-03-12T00:55:23.181Z,6.33
2019-03-12T00:57:50.922Z,7.15
2019-03-12T01:00:18.801Z,5.92
2019-03-12T01:02:47.302Z,7.95
2019-03-12T01:05:17.509Z,9.93
2019-03-12T01:07:45.176Z,6.15
2019-03-12T01:10:13.509Z,7.17
2019-03-12T01:12:42.306Z,6.95
2019-03-12T01:15:10.532Z,8.30
2019-03-12T01:17:38.595Z,7.97
2019-03-12T01:20:08.298Z,11.48
2019-03-12T01:22:36.056Z,10.95
2019-03-12T01:25:04.278Z,9.83
2019-03-12T01:27:32.098Z,9.00
2019-03-12T01:29:59.605Z,10.03
2019-03-12T01:32:27.265Z,9.08
2019-03-12T01:34:55.158Z,11.03
2019-03-12T01:37:22.764Z,9.48
2019-03-12T01:39:50.359Z,12.37
2019-03-12T01:42:18.084Z,10.23
2019-03-12T01:44:45.837Z,10.35
2019-03-12T01:47:13.543Z,8.08
2019-03-12T01:49:41.211Z,9.15
2019-03-12T01:52:08.863Z,10.63
2019-03-12T01:54:36.506Z,10.60
2019-03-12T01:57:04.466Z,15.35
2019-03-12T01:59:32.393Z,12.33
2019-03-12T02:01:59.999Z,11.45
2019-03-12T02:04:28.126Z,8.63
2019-03-12T02:06:57.507Z,7.95
2019-03-12T02:09:25.402Z,12.07
2019-03-12T02:11:53.141Z,8.78
2019-03-12T02:14:28.129Z,9.55
2019-03-12T02:16:55.843Z,9.43
2019-03-12T02:19:24.426Z,12.90
2019-03-12T02:21:52.103Z,7.03
2019-03-12T02:24:19.796Z,11.30
2019-03-12T02:26:47.408Z,8.83
2019-03-12T02:29:15.029Z,9.20
2019-03-12T02:31:42.767Z,8.38
2019-03-12T02:34:10.488Z,13.00
2019-03-12T02:36:38.126Z,8.50
2019-03-12T02:39:05.922Z,8.15
2019-03-12T02:41:35.358Z,10.50
2019-03-12T02:44:03.051Z,15.95
2019-03-12T02:46:30.970Z,11.00
2019-03-12T02:48:58.706Z,15.48
2019-03-12T02:51:26.451Z,9.23
2019-03-12T02:53:54.173Z,11.97
2019-03-12T02:56:21.963Z,13.68
2019-03-12T02:58:49.626Z,11.00
2019-03-12T03:01:17.289Z,12.10
2019-03-12T03:03:46.027Z,13.35
2019-03-12T03:06:24.666Z,9.75
2019-03-12T03:08:52.266Z,8.08
2019-03-12T03:11:19.968Z,8.68
2019-03-12T03:13:48.957Z,6.83
2019-03-12T03:16:16.766Z,10.23
2019-03-12T03:18:44.452Z,7.60
2019-03-12T03:21:12.200Z,7.87
2019-03-12T03:23:40.188Z,8.18
2019-03-12T03:26:07.853Z,8.25
2019-03-12T03:28:35.716Z,6.58
2019-03-12T03:31:03.703Z,8.13
2019-03-12T03:33:31.438Z,9.68
2019-03-12T03:35:59.233Z,10.45
2019-03-12T03:38:26.825Z,9.80
2019-03-12T03:40:54.472Z,8.93
2019-03-12T03:43:22.128Z,7.62
2019-03-12T03:45:49.663Z,6.85
2019-03-12T03:48:17.378Z,7.00
2019-03-12T03:50:45.111Z,9.48
2019-03-12T03:53:12.743Z,10.18
2019-03-12T03:55:40.476Z,4.92
2019-03-12T03:58:08.280Z,7.65
2019-03-12T04:00:35.928Z,8.15
2019-03-12T04:03:03.514Z,5.15
2019-03-12T04:05:31.491Z,8.88
2019-03-12T04:07:59.458Z,10.32
2019-03-12T04:10:28.197Z,15.25
2019-03-12T04:12:56.153Z,8.33
2019-03-12T04:15:23.922Z,6.03
2019-03-12T04:17:51.607Z,10.55
2019-03-12T04:20:19.447Z,10.75
2019-03-12T04:22:47.106Z,9.83
2019-03-12T04:25:14.752Z,7.37
2019-03-12T04:27:43.517Z,10.25
2019-03-12T04:30:11.975Z,8.50
2019-03-12T04:32:39.700Z,7.15
2019-03-12T04:35:08.807Z,8.68
2019-03-12T04:37:36.418Z,12.00
2019-03-12T04:40:48.196Z,7.92
2019-03-12T04:43:15.770Z,11.53
2019-03-12T04:45:44.355Z,8.33
2019-03-12T04:48:12.075Z,6.37
2019-03-12T04:50:39.864Z,5.58
2019-03-12T04:53:07.447Z,9.63
2019-03-12T04:55:35.202Z,8.33
2019-03-12T04:58:02.898Z,9.73
2019-03-12T05:00:30.436Z,9.53
2019-03-12T05:02:58.068Z,6.83
2019-03-12T05:05:25.657Z,9.33
2019-03-12T05:07:53.262Z,9.40
2019-03-12T05:10:21.577Z,8.53
2019-03-12T05:12:49.275Z,8.13
2019-03-12T05:15:16.999Z,8.00
2019-03-12T05:17:44.861Z,7.87
2019-03-12T05:20:13.397Z,16.17
2019-03-12T05:22:41.130Z,11.35
2019-03-12T05:25:10.017Z,10.35
2019-03-12T05:27:37.810Z,10.65
2019-03-12T05:30:07.906Z,9.25
2019-03-12T05:32:35.677Z,9.98
2019-03-12T05:35:03.698Z,8.70
2019-03-12T05:37:41.470Z,13.32
2019-03-12T05:40:09.535Z,18.05
2019-03-12T05:42:37.559Z,16.45
2019-03-12T05:45:05.508Z,12.82
2019-03-12T05:47:34.251Z,10.95
2019-03-12T05:50:01.836Z,10.70
2019-03-12T05:52:29.441Z,11.85
2019-03-12T05:54:57.091Z,11.38
2019-03-12T05:57:24.746Z,13.35
2019-03-12T05:59:52.388Z,11.63
2019-03-12T06:02:20.191Z,9.38
2019-03-12T06:04:47.922Z,14.30
2019-03-12T06:07:15.540Z,10.05
2019-03-12T06:09:44.208Z,14.58
2019-03-12T06:12:12.235Z,10.55
2019-03-12T06:14:40.119Z,12.30
2019-03-12T06:17:09.126Z,12.60
2019-03-12T06:19:36.787Z,13.83
2019-03-12T06:22:04.550Z,7.42
2019-03-12T06:24:32.226Z,9.70
2019-03-12T06:26:59.840Z,11.95
2019-03-12T06:29:27.743Z,11.65
2019-03-12T06:32:30.428Z,11.80
2019-03-12T06:35:17.639Z,15.72
2019-03-12T06:38:05.114Z,10.75
2019-03-12T06:40:38.501Z,15.05
2019-03-12T06:43:20.064Z,15.15
2019-03-12T06:46:22.570Z,12.20
2019-03-12T06:49:04.005Z,11.68
2019-03-12T06:51:51.190Z,10.28
2019-03-12T06:54:26.210Z,11.20
2019-03-12T06:57:13.466Z,14.25
2019-03-12T06:59:51.346Z,11.33
2019-03-12T07:02:38.481Z,10.38
2019-03-12T07:05:31.886Z,13.05
2019-03-12T07:08:07.773Z,14.98
2019-03-12T07:10:45.358Z,15.53
2019-03-12T07:13:32.527Z,13.65
2019-03-12T07:16:11.942Z,8.73
2019-03-12T07:18:54.605Z,9.68
2019-03-12T07:21:40.680Z,12.65
2019-03-12T07:24:26.917Z,12.07
2019-03-12T07:27:12.845Z,12.07
2019-03-12T07:30:07.115Z,9.63
2019-03-12T07:33:03.417Z,17.30
2019-03-12T07:35:45.252Z,11.22
2019-03-12T07:38:18.643Z,9.55
2019-03-12T07:41:26.550Z,7.35
2019-03-12T07:43:56.154Z,14.13
2019-03-12T07:46:40.061Z,10.15
2019-03-12T07:49:43.059Z,10.00
2019-03-12T07:52:20.110Z,11.43
2019-03-12T07:55:19.549Z,9.10
2019-03-12T07:58:06.616Z,11.28
2019-03-12T08:00:53.568Z,12.25
2019-03-12T08:03:40.783Z,11.00
2019-03-12T08:06:20.813Z,11.20
2019-03-12T08:09:17.177Z,15.83
2019-03-12T08:12:16.361Z,12.90
2019-03-12T08:14:57.559Z,10.53
2019-03-12T08:17:50.994Z,9.28
2019-03-12T08:20:44.178Z,13.00
2019-03-12T08:23:18.049Z,9.63
2019-03-12T08:25:55.351Z,11.20
2019-03-12T08:28:28.690Z,13.60
2019-03-12T08:31:12.720Z,11.75
2019-03-12T08:34:04.483Z,16.23
2019-03-12T08:36:47.058Z,8.98
2019-03-12T08:39:31.349Z,12.25
2019-03-12T08:42:12.525Z,11.03
2019-03-12T08:44:47.968Z,13.43
2019-03-12T08:47:41.588Z,13.75
2019-03-12T08:50:30.611Z,8.03
2019-03-12T08:53:17.853Z,16.73
2019-03-12T08:56:03.882Z,9.68
2019-03-12T08:59:03.265Z,8.85
2019-03-12T09:01:56.613Z,12.45
2019-03-12T09:04:43.929Z,10.95
2019-03-12T09:07:31.260Z,12.28
2019-03-12T09:10:24.678Z,14.18
2019-03-12T09:13:24.253Z,12.73
2019-03-12T09:16:03.898Z,12.53
2019-03-12T09:18:52.124Z,16.37
2019-03-12T09:21:42.501Z,11.90
2019-03-12T09:24:35.801Z,9.28
2019-03-12T09:27:35.402Z,12.65
2019-03-12T09:30:13.062Z,12.88
2019-03-12T09:33:04.313Z,13.28
2019-03-12T09:35:51.519Z,16.52
2019-03-12T09:38:38.815Z,14.95
2019-03-12T09:41:18.748Z,11.83
2019-03-12T09:44:02.246Z,11.70
2019-03-12T09:46:58.571Z,16.75
2019-03-12T09:49:55.094Z,12.47
2019-03-12T09:52:48.029Z,11.78
2019-03-12T09:55:41.225Z,14.23
2019-03-12T09:58:28.374Z,8.15
2019-03-12T10:01:10.088Z,16.93
2019-03-12T10:03:50.299Z,12.43
2019-03-12T10:06:36.273Z,12.55
2019-03-12T10:09:33.531Z,11.97
2019-03-12T10:12:09.565Z,13.75
2019-03-12T10:14:55.187Z,9.35
2019-03-12T10:17:41.383Z,10.18
2019-03-12T10:20:27.359Z,13.40
2019-03-12T10:23:26.620Z,10.28
2019-03-12T10:26:03.331Z,10.98
2019-03-12T10:28:49.474Z,7.20
2019-03-12T10:31:35.515Z,11.40
2019-03-12T10:34:29.497Z,10.78
2019-03-12T10:37:14.011Z,8.78
2019-03-12T10:40:06.341Z,12.78
2019-03-12T10:42:58.965Z,11.65
2019-03-12T10:45:52.357Z,11.95
2019-03-12T10:48:20.195Z,13.83
2019-03-12T10:50:48.053Z,14.50
2019-03-12T10:53:16.059Z,8.15
2019-03-12T10:55:43.695Z,8.80
2019-03-12T10:58:11.395Z,11.88
2019-03-12T11:00:39.507Z,10.20
2019-03-12T11:03:07.231Z,10.72
2019-03-12T11:05:45.221Z,10.53
2019-03-12T11:08:06.806Z,7.47
2019-03-12T11:10:34.907Z,12.15
2019-03-12T11:13:03.694Z,9.60
2019-03-12T11:15:31.453Z,9.03
2019-03-12T11:17:59.209Z,9.60
2019-03-12T11:20:27.061Z,10.75
2019-03-12T11:22:55.053Z,10.65
2019-03-12T11:25:27.712Z,9.63
2019-03-12T11:27:54.821Z,9.03
2019-03-12T11:30:22.519Z,8.50
2019-03-12T11:32:50.254Z,9.08
2019-03-12T11:35:18.447Z,10.58
2019-03-12T11:37:46.978Z,8.50
2019-03-12T11:40:16.866Z,7.05
2019-03-12T11:42:45.067Z,11.75
2019-03-12T11:45:16.941Z,7.75
2019-03-12T11:47:44.003Z,11.35
2019-03-12T11:50:16.589Z,11.22
2019-03-12T11:52:52.305Z,11.78
2019-03-12T11:55:14.915Z,9.53
2019-03-12T11:57:43.107Z,9.53
2019-03-12T12:00:19.087Z,7.72
2019-03-12T12:02:44.115Z,8.73
2019-03-12T12:05:11.900Z,11.90
2019-03-12T12:07:42.549Z,7.75
2019-03-12T12:10:11.841Z,12.00
2019-03-12T12:12:40.243Z,9.83
2019-03-12T12:15:09.552Z,7.28
2019-03-12T12:17:37.820Z,11.43
2019-03-12T12:20:06.019Z,10.35
2019-03-12T12:22:33.756Z,8.45
2019-03-12T12:25:01.663Z,8.88
2019-03-12T12:27:30.523Z,8.70
2019-03-12T12:29:58.475Z,9.53
2019-03-12T12:32:26.427Z,12.63
2019-03-12T12:34:54.129Z,12.78
2019-03-12T12:37:21.851Z,9.28
2019-03-12T12:39:49.629Z,7.78
2019-03-12T12:42:17.335Z,8.18
2019-03-12T12:44:44.975Z,9.95
2019-03-12T12:47:12.734Z,9.13
2019-03-12T12:49:40.521Z,8.90
2019-03-12T12:52:08.488Z,6.67
2019-03-12T12:54:36.457Z,6.72
2019-03-12T12:57:04.351Z,10.00
2019-03-12T12:59:32.188Z,8.00
2019-03-12T13:02:00.122Z,9.58
2019-03-12T13:04:27.882Z,5.70
2019-03-12T13:06:58.879Z,13.22
2019-03-12T13:09:26.766Z,11.22
2019-03-12T13:11:54.879Z,8.03
2019-03-12T13:14:22.567Z,8.25
2019-03-12T13:16:50.951Z,7.45
2019-03-12T13:19:18.677Z,6.35
2019-03-12T13:21:46.423Z,8.85
2019-03-12T13:24:14.687Z,8.18
2019-03-12T13:26:42.732Z,7.58
2019-03-12T13:29:10.445Z,8.58
2019-03-12T13:31:38.303Z,12.50
2019-03-12T13:34:06.291Z,10.40
2019-03-12T13:36:34.307Z,8.80
2019-03-12T13:39:02.761Z,11.33
2019-03-12T13:41:32.565Z,11.20
2019-03-12T13:44:00.423Z,10.48
2019-03-12T13:46:28.179Z,7.10
2019-03-12T13:48:57.180Z,7.83
2019-03-12T13:51:24.911Z,7.55
2019-03-12T13:53:52.712Z,11.65
2019-03-12T13:56:21.449Z,6.35
2019-03-12T13:58:49.035Z,8.25
2019-03-12T14:01:16.723Z,8.60
2019-03-12T14:03:44.528Z,7.17
2019-03-12T14:06:12.303Z,10.63
2019-03-12T14:08:40.107Z,9.83
2019-03-12T14:11:07.889Z,8.18
2019-03-12T14:13:36.070Z,6.67
2019-03-12T14:16:05.626Z,9.53
2019-03-12T14:18:33.489Z,6.67
2019-03-12T14:21:07.450Z,8.35
2019-03-12T14:23:41.262Z,5.22
2019-03-12T14:26:08.906Z,6.62
2019-03-12T14:28:36.757Z,5.87
2019-03-12T14:31:05.054Z,9.35
2019-03-12T14:33:32.811Z,10.10
2019-03-12T14:36:00.572Z,9.03
2019-03-12T14:38:30.058Z,7.15
2019-03-12T14:40:57.834Z,6.72
2019-03-12T14:43:26.772Z,6.92
2019-03-12T14:45:54.705Z,6.33
2019-03-12T14:48:44.706Z,5.25
2019-03-12T14:51:32.160Z,5.87
2019-03-12T14:54:00.275Z,4.15
2019-03-12T14:56:31.199Z,5.28
2019-03-12T14:58:59.942Z,7.12
2019-03-12T15:01:27.731Z,6.45
2019-03-12T15:03:55.454Z,6.85
2019-03-12T15:06:23.683Z,5.90
2019-03-12T15:08:51.719Z,4.97
2019-03-12T15:11:19.726Z,5.20
2019-03-12T15:13:47.874Z,8.28
2019-03-12T15:16:16.616Z,5.87
2019-03-12T15:18:44.494Z,7.00
2019-03-12T15:21:12.239Z,4.17
2019-03-12T15:23:40.381Z,6.90
2019-03-12T15:26:08.206Z,5.62
2019-03-12T15:28:36.039Z,4.25
2019-03-12T15:31:03.763Z,7.53
2019-03-12T15:33:31.535Z,7.62
2019-03-12T15:36:00.246Z,5.65
2019-03-12T15:38:27.852Z,4.55
2019-03-12T15:40:55.662Z,7.35
2019-03-12T15:43:24.402Z,5.25
2019-03-12T15:45:52.103Z,4.42
2019-03-12T15:48:21.540Z,6.12
2019-03-12T15:50:49.683Z,5.78
2019-03-12T15:53:17.436Z,10.90
2019-03-12T15:55:45.083Z,4.75
2019-03-12T15:58:12.678Z,2.95
2019-03-12T16:00:40.284Z,5.05
2019-03-12T16:03:08.195Z,6.97
2019-03-12T16:05:35.918Z,4.47
2019-03-12T16:08:03.574Z,8.80
2019-03-12T16:10:31.220Z,5.62
2019-03-12T16:12:59.310Z,4.12
2019-03-12T16:15:27.099Z,5.15
2019-03-12T16:17:54.869Z,3.42
2019-03-12T16:20:22.699Z,7.12
2019-03-12T16:22:50.593Z,5.60
2019-03-12T16:25:18.276Z,4.15
2019-03-12T16:27:46.060Z,8.63
2019-03-12T16:30:13.903Z,8.03
2019-03-12T16:32:42.089Z,4.62
2019-03-12T16:35:11.130Z,8.43
2019-03-12T16:37:40.001Z,3.42
2019-03-12T16:40:13.922Z,6.25
2019-03-12T16:42:42.018Z,3.65
2019-03-12T16:45:10.451Z,8.93
2019-03-12T16:47:38.131Z,3.92
2019-03-12T16:50:05.974Z,4.70
2019-03-12T16:52:33.710Z,4.20
2019-03-12T16:55:01.513Z,6.53
2019-03-12T16:57:29.908Z,5.67
2019-03-12T16:59:57.645Z,5.12
2019-03-12T17:02:25.535Z,5.12
2019-03-12T17:04:53.498Z,6.78
2019-03-12T17:07:21.173Z,6.53
2019-03-12T17:09:48.906Z,5.50
2019-03-12T17:12:18.733Z,6.85
2019-03-12T17:14:46.526Z,4.30
2019-03-12T17:17:14.338Z,5.60
2019-03-12T17:19:42.148Z,6.15
2019-03-12T17:22:09.826Z,5.17
2019-03-12T17:24:37.655Z,6.40
2019-03-12T17:27:05.641Z,11.30
2019-03-12T17:29:33.551Z,4.92
2019-03-12T17:32:02.140Z,2.83
2019-03-12T17:34:35.894Z,2.55
2019-03-12T17:37:01.069Z,5.35
2019-03-12T17:39:28.834Z,3.98
2019-03-12T17:41:59.848Z,4.05
2019-03-12T17:44:27.905Z,3.08
2019-03-12T17:46:56.478Z,4.55
2019-03-12T17:49:25.286Z,3.90
2019-03-12T17:51:53.257Z,5.83
2019-03-12T17:54:21.245Z,5.78
2019-03-12T17:56:49.151Z,3.42
2019-03-12T17:59:17.919Z,2.70
2019-03-12T18:01:45.651Z,2.62
2019-03-12T18:04:13.718Z,3.02
2019-03-12T18:06:41.489Z,4.30
2019-03-12T18:09:09.397Z,4.37
2019-03-12T18:11:39.240Z,4.12
2019-03-12T18:14:07.215Z,6.08
2019-03-12T18:16:40.987Z,2.62
2019-03-12T18:19:05.179Z,4.25
2019-03-12T18:21:33.105Z,4.03
2019-03-12T18:24:01.174Z,3.55
2019-03-12T18:26:28.998Z,2.90
2019-03-12T18:28:59.188Z,2.60
2019-03-12T18:31:27.073Z,5.42
2019-03-12T18:33:55.682Z,3.77
2019-03-12T18:36:25.774Z,3.25
2019-03-12T18:38:53.741Z,4.80
2019-03-12T18:41:26.257Z,3.08
2019-03-12T18:43:54.248Z,4.28
2019-03-12T18:46:22.511Z,3.77
2019-03-12T18:48:50.803Z,2.90
2019-03-12T18:51:18.599Z,2.77
2019-03-12T18:53:46.455Z,3.65
2019-03-12T18:56:26.217Z,4.25
2019-03-12T18:58:59.392Z,1.67
2019-03-12T19:01:27.420Z,4.50
2019-03-12T19:03:55.268Z,3.83
2019-03-12T19:06:23.187Z,4.35
2019-03-12T19:08:51.320Z,3.92
2019-03-12T19:11:19.331Z,1.98
2019-03-12T19:13:47.075Z,4.87
2019-03-12T19:16:15.006Z,4.22
2019-03-12T19:18:42.861Z,6.20
2019-03-12T19:21:13.642Z,3.52
2019-03-12T19:23:41.554Z,3.17
2019-03-12T19:26:11.608Z,4.00
2019-03-12T19:28:40.390Z,4.30
2019-03-12T19:31:22.523Z,4.53
2019-03-12T19:33:51.186Z,2.92
2019-03-12T19:36:19.161Z,4.33
2019-03-12T19:38:47.172Z,4.17
2019-03-12T19:41:17.134Z,3.12
2019-03-12T19:43:47.026Z,3.98
2019-03-12T19:46:14.875Z,4.37
2019-03-12T19:48:42.931Z,3.60
2019-03-12T19:51:12.328Z,3.90
2019-03-12T19:53:40.370Z,4.40
2019-03-12T19:56:08.503Z,4.70
2019-03-12T19:58:36.582Z,4.42
2019-03-12T20:01:06.460Z,2.47
2019-03-12T20:03:34.148Z,3.92
2019-03-12T20:06:02.002Z,3.60
2019-03-12T20:08:31.008Z,5.05
2019-03-12T20:11:46.775Z,4.20
2019-03-12T20:14:44.879Z,2.85
2019-03-12T20:17:41.828Z,3.98
2019-03-12T20:21:06.280Z,4.37
2019-03-12T20:24:13.644Z,3.92
2019-03-12T20:27:25.385Z,4.95
2019-03-12T20:30:43.287Z,3.42
2019-03-12T20:34:11.524Z,4.00
2019-03-12T20:37:16.341Z,4.97
2019-03-12T20:40:30.951Z,3.25
2019-03-12T20:43:52.070Z,3.37
2019-03-12T20:46:57.712Z,4.42
2019-03-12T20:50:03.166Z,2.87
2019-03-12T20:53:06.313Z,2.85
2019-03-12T20:56:22.135Z,3.47
2019-03-12T20:59:56.480Z,4.00
2019-03-12T21:03:15.324Z,5.60
2019-03-12T21:06:18.819Z,4.78
2019-03-12T21:09:33.995Z,5.03
2019-03-12T21:12:56.867Z,5.03
2019-03-12T21:15:55.397Z,4.17
2019-03-12T21:19:26.736Z,5.15
2019-03-12T21:22:22.855Z,4.85
2019-03-12T21:25:09.863Z,3.02
2019-03-12T21:28:09.321Z,5.37
2019-03-12T21:30:37.223Z,3.70
2019-03-12T21:33:14.782Z,5.30
2019-03-12T21:35:35.127Z,4.25
2019-03-12T21:38:03.154Z,3.72
2019-03-12T21:40:31.167Z,3.42
2019-03-12T21:42:59.537Z,5.30
2019-03-12T21:45:27.701Z,2.70
2019-03-12T21:47:59.524Z,4.45
2019-03-12T21:50:30.162Z,4.85
2019-03-12T21:52:58.325Z,3.85
2019-03-12T21:55:26.197Z,3.83
2019-03-12T21:57:54.132Z,3.40
2019-03-12T22:00:22.331Z,4.92
2019-03-12T22:02:50.458Z,4.25
2019-03-12T22:05:18.641Z,4.90
2019-03-12T22:07:46.581Z,3.55
2019-03-12T22:10:15.552Z,4.60
2019-03-12T22:12:43.666Z,3.72
2019-03-12T22:15:11.648Z,7.85
2019-03-12T22:17:39.574Z,5.22
2019-03-12T22:20:08.786Z,4.85
2019-03-12T22:22:44.239Z,2.42
2019-03-12T22:25:12.416Z,4.72
2019-03-12T22:27:40.894Z,4.62
2019-03-12T22:30:12.166Z,4.42
2019-03-12T22:32:41.165Z,4.22
2019-03-12T22:35:09.497Z,4.05
2019-03-12T22:37:37.520Z,3.80
2019-03-12T22:40:09.874Z,3.95
2019-03-12T22:42:37.722Z,3.90
2019-03-12T22:45:06.571Z,4.53
2019-03-12T22:47:36.080Z,8.30
2019-03-12T22:50:04.354Z,3.72
2019-03-12T22:52:32.298Z,3.50
2019-03-12T22:55:03.392Z,4.55
2019-03-12T22:57:30.023Z,3.25
2019-03-12T23:00:16.682Z,3.65
2019-03-12T23:03:03.302Z,3.92
2019-03-12T23:05:49.781Z,4.37
2019-03-12T23:08:36.191Z,2.77
2019-03-12T23:11:06.044Z,3.35
2019-03-12T23:13:34.289Z,3.35
2019-03-12T23:16:07.019Z,4.67
2019-03-12T23:18:46.534Z,4.47
2019-03-12T23:21:14.556Z,4.42
2019-03-12T23:23:42.366Z,4.70
2019-03-12T23:26:10.299Z,5.60
2019-03-12T23:28:38.601Z,4.55
2019-03-12T23:31:06.663Z,5.05
2019-03-12T23:33:34.522Z,4.50
2019-03-12T23:36:02.329Z,3.70
2019-03-12T23:38:30.448Z,3.40
2019-03-12T23:40:58.628Z,3.62
2019-03-12T23:43:26.302Z,3.65
2019-03-12T23:45:57.804Z,2.45
2019-03-12T23:48:29.008Z,4.25
2019-03-12T23:50:56.709Z,1.62
2019-03-12T23:53:28.006Z,1.62
2019-03-12T23:55:56.064Z,1.50
2019-03-12T23:58:29.648Z,1.65
